sensor_id;sensor_type;location;lat;lon;timestamp;pressure;altitude;pressure_sealevel;temperature;humidity
26711;BME280;18311;52.754;18.118;2023-02-11T00:02:17;101694.81;;;14.79;48.06
26711;BME280;18311;52.754;18.118;2023-02-11T00:04:48;101668.84;;;13.66;49.82
26711;BME280;18311;52.754;18.118;2023-02-11T00:07:18;101709.38;;;12.84;51.79
26711;BME280;18311;52.754;18.118;2023-02-11T00:09:49;101720.41;;;13.77;49.25
26711;BME280;18311;52.754;18.118;2023-02-11T00:12:20;101713.91;;;14.28;49.54
26711;BME280;18311;52.754;18.118;2023-02-11T00:14:51;101714.50;;;12.92;51.15
26711;BME280;18311;52.754;18.118;2023-02-11T00:17:22;101700.63;;;14.24;49.44
26711;BME280;18311;52.754;18.118;2023-02-11T00:19:55;101703.75;;;14.79;47.13
26711;BME280;18311;52.754;18.118;2023-02-11T00:22:26;101688.42;;;15.02;46.66
26711;BME280;18311;52.754;18.118;2023-02-11T00:24:58;101682.59;;;13.58;49.32
26711;BME280;18311;52.754;18.118;2023-02-11T00:27:29;101682.77;;;13.77;48.59
26711;BME280;18311;52.754;18.118;2023-02-11T00:30:02;101667.14;;;14.31;47.25
26711;BME280;18311;52.754;18.118;2023-02-11T00:32:33;101653.68;;;13.16;49.45
26711;BME280;18311;52.754;18.118;2023-02-11T00:35:04;101642.78;;;12.95;50.66
26711;BME280;18311;52.754;18.118;2023-02-11T00:37:35;101617.41;;;13.75;49.08
26711;BME280;18311;52.754;18.118;2023-02-11T00:40:08;101634.97;;;13.62;47.91
26711;BME280;18311;52.754;18.118;2023-02-11T00:42:39;101634.80;;;13.17;50.69
26711;BME280;18311;52.754;18.118;2023-02-11T00:45:09;101644.13;;;14.24;48.35
26711;BME280;18311;52.754;18.118;2023-02-11T00:47:40;101654.73;;;15.12;45.76
26711;BME280;18311;52.754;18.118;2023-02-11T00:50:12;101661.58;;;14.35;47.88
26711;BME280;18311;52.754;18.118;2023-02-11T00:52:42;101655.11;;;15.23;45.75
26711;BME280;18311;52.754;18.118;2023-02-11T00:55:13;101657.59;;;13.56;48.54
26711;BME280;18311;52.754;18.118;2023-02-11T00:57:45;101640.19;;;14.96;45.97
26711;BME280;18311;52.754;18.118;2023-02-11T01:00:16;101637.71;;;14.48;46.61
26711;BME280;18311;52.754;18.118;2023-02-11T01:02:47;101613.09;;;15.19;45.30
26711;BME280;18311;52.754;18.118;2023-02-11T01:05:18;101618.00;;;13.12;48.95
26711;BME280;18311;52.754;18.118;2023-02-11T01:07:49;101621.86;;;13.76;48.53
26711;BME280;18311;52.754;18.118;2023-02-11T01:10:20;101629.30;;;14.13;48.06
26711;BME280;18311;52.754;18.118;2023-02-11T01:12:51;101650.58;;;15.05;45.34
26711;BME280;18311;52.754;18.118;2023-02-11T01:15:22;101651.25;;;15.10;44.97
26711;BME280;18311;52.754;18.118;2023-02-11T01:17:53;101638.56;;;14.28;47.15
26711;BME280;18311;52.754;18.118;2023-02-11T01:20:25;101641.53;;;15.06;46.10
26711;BME280;18311;52.754;18.118;2023-02-11T01:22:56;101643.78;;;14.96;45.31
26711;BME280;18311;52.754;18.118;2023-02-11T01:25:27;101639.75;;;13.99;47.31
26711;BME280;18311;52.754;18.118;2023-02-11T01:27:57;101616.11;;;14.29;46.13
26711;BME280;18311;52.754;18.118;2023-02-11T01:30:28;101593.55;;;13.44;48.60
26711;BME280;18311;52.754;18.118;2023-02-11T01:32:59;101591.52;;;14.80;46.18
26711;BME280;18311;52.754;18.118;2023-02-11T01:35:30;101609.80;;;13.40;48.29
26711;BME280;18311;52.754;18.118;2023-02-11T01:38:05;101596.41;;;14.49;45.58
26711;BME280;18311;52.754;18.118;2023-02-11T01:40:36;101587.78;;;14.41;46.54
26711;BME280;18311;52.754;18.118;2023-02-11T01:43:09;101583.12;;;14.87;45.19
26711;BME280;18311;52.754;18.118;2023-02-11T01:48:26;101554.30;;;14.28;47.17
26711;BME280;18311;52.754;18.118;2023-02-11T01:51:00;101543.82;;;13.55;48.38
26711;BME280;18311;52.754;18.118;2023-02-11T01:53:34;101543.66;;;14.86;45.75
26711;BME280;18311;52.754;18.118;2023-02-11T01:56:27;101546.63;;;12.56;50.32
26711;BME280;18311;52.754;18.118;2023-02-11T01:59:21;101544.66;;;12.87;50.43
26711;BME280;18311;52.754;18.118;2023-02-11T02:01:55;101527.36;;;14.07;46.91
26711;BME280;18311;52.754;18.118;2023-02-11T02:04:33;101543.02;;;12.57;48.71
26711;BME280;18311;52.754;18.118;2023-02-11T02:07:05;101521.87;;;14.72;46.07
26711;BME280;18311;52.754;18.118;2023-02-11T02:09:42;101511.82;;;14.55;45.86
26711;BME280;18311;52.754;18.118;2023-02-11T02:12:08;101504.82;;;13.89;47.40
26711;BME280;18311;52.754;18.118;2023-02-11T02:14:40;101491.86;;;14.20;45.59
26711;BME280;18311;52.754;18.118;2023-02-11T02:17:27;101499.39;;;14.52;45.76
26711;BME280;18311;52.754;18.118;2023-02-11T02:22:46;101494.95;;;13.22;48.73
26711;BME280;18311;52.754;18.118;2023-02-11T02:25:35;101501.28;;;13.21;47.48
26711;BME280;18311;52.754;18.118;2023-02-11T02:31:43;101492.98;;;13.93;48.19
26711;BME280;18311;52.754;18.118;2023-02-11T02:34:33;101474.72;;;13.37;48.54
26711;BME280;18311;52.754;18.118;2023-02-11T02:37:10;101471.81;;;13.86;46.77
26711;BME280;18311;52.754;18.118;2023-02-11T02:39:42;101486.98;;;12.73;49.65
26711;BME280;18311;52.754;18.118;2023-02-11T02:42:16;101480.58;;;13.69;48.59
26711;BME280;18311;52.754;18.118;2023-02-11T02:44:51;101476.96;;;13.48;47.87
26711;BME280;18311;52.754;18.118;2023-02-11T02:47:22;101490.28;;;12.56;49.55
26711;BME280;18311;52.754;18.118;2023-02-11T02:49:53;101481.20;;;13.96;47.37
26711;BME280;18311;52.754;18.118;2023-02-11T02:52:35;101474.66;;;13.15;49.33
26711;BME280;18311;52.754;18.118;2023-02-11T02:55:15;101461.86;;;13.21;47.87
26711;BME280;18311;52.754;18.118;2023-02-11T03:00:43;101433.84;;;13.51;48.05
26711;BME280;18311;52.754;18.118;2023-02-11T03:06:06;101421.67;;;13.42;47.42
26711;BME280;18311;52.754;18.118;2023-02-11T03:08:52;101413.53;;;14.46;45.11
26711;BME280;18311;52.754;18.118;2023-02-11T03:11:23;101419.31;;;13.77;47.13
26711;BME280;18311;52.754;18.118;2023-02-11T03:13:56;101408.28;;;14.43;45.50
26711;BME280;18311;52.754;18.118;2023-02-11T03:16:29;101420.03;;;13.38;47.76
26711;BME280;18311;52.754;18.118;2023-02-11T03:19:16;101433.48;;;14.01;46.90
26711;BME280;18311;52.754;18.118;2023-02-11T03:21:43;101416.25;;;14.26;44.90
26711;BME280;18311;52.754;18.118;2023-02-11T03:24:19;101405.22;;;14.32;46.00
26711;BME280;18311;52.754;18.118;2023-02-11T03:26:54;101403.06;;;14.40;46.58
26711;BME280;18311;52.754;18.118;2023-02-11T03:32:24;101383.06;;;15.39;43.57
26711;BME280;18311;52.754;18.118;2023-02-11T03:35:15;101382.63;;;13.33;47.22
26711;BME280;18311;52.754;18.118;2023-02-11T03:37:56;101379.80;;;14.19;46.40
26711;BME280;18311;52.754;18.118;2023-02-11T03:40:34;101381.73;;;14.75;44.79
26711;BME280;18311;52.754;18.118;2023-02-11T03:43:32;101383.75;;;13.70;46.33
26711;BME280;18311;52.754;18.118;2023-02-11T03:45:59;101374.33;;;14.41;46.01
26711;BME280;18311;52.754;18.118;2023-02-11T03:48:37;101373.34;;;14.81;44.08
26711;BME280;18311;52.754;18.118;2023-02-11T03:51:11;101347.95;;;14.09;46.45
26711;BME280;18311;52.754;18.118;2023-02-11T03:53:46;101359.27;;;13.97;46.06
26711;BME280;18311;52.754;18.118;2023-02-11T03:56:19;101372.66;;;14.38;45.31
26711;BME280;18311;52.754;18.118;2023-02-11T03:58:52;101380.00;;;14.53;44.63
26711;BME280;18311;52.754;18.118;2023-02-11T04:01:23;101368.92;;;14.61;45.04
26711;BME280;18311;52.754;18.118;2023-02-11T04:03:56;101376.83;;;13.65;45.75
26711;BME280;18311;52.754;18.118;2023-02-11T04:06:27;101373.98;;;13.68;46.51
26711;BME280;18311;52.754;18.118;2023-02-11T04:08:58;101359.43;;;14.52;45.64
26711;BME280;18311;52.754;18.118;2023-02-11T04:11:32;101346.56;;;14.78;45.10
26711;BME280;18311;52.754;18.118;2023-02-11T04:14:07;101340.39;;;13.78;46.31
26711;BME280;18311;52.754;18.118;2023-02-11T04:16:40;101338.45;;;14.97;44.93
26711;BME280;18311;52.754;18.118;2023-02-11T04:19:13;101323.88;;;15.38;44.74
26711;BME280;18311;52.754;18.118;2023-02-11T04:21:44;101322.42;;;13.99;46.42
26711;BME280;18311;52.754;18.118;2023-02-11T04:24:17;101320.85;;;15.61;43.54
26711;BME280;18311;52.754;18.118;2023-02-11T04:26:47;101328.29;;;14.85;44.43
26711;BME280;18311;52.754;18.118;2023-02-11T04:29:20;101304.45;;;13.81;47.32
26711;BME280;18311;52.754;18.118;2023-02-11T04:31:54;101304.95;;;13.05;48.29
26711;BME280;18311;52.754;18.118;2023-02-11T04:34:26;101291.49;;;14.47;46.15
26711;BME280;18311;52.754;18.118;2023-02-11T04:36:58;101293.98;;;14.33;46.10
26711;BME280;18311;52.754;18.118;2023-02-11T04:39:31;101295.94;;;15.04;45.26
26711;BME280;18311;52.754;18.118;2023-02-11T04:42:03;101298.08;;;15.15;45.38
26711;BME280;18311;52.754;18.118;2023-02-11T04:44:34;101297.66;;;13.72;47.37
26711;BME280;18311;52.754;18.118;2023-02-11T04:47:06;101310.30;;;15.39;44.48
26711;BME280;18311;52.754;18.118;2023-02-11T04:49:38;101300.53;;;13.88;47.71
26711;BME280;18311;52.754;18.118;2023-02-11T04:52:10;101307.81;;;13.65;47.10
26711;BME280;18311;52.754;18.118;2023-02-11T04:54:44;101313.10;;;15.38;44.94
26711;BME280;18311;52.754;18.118;2023-02-11T04:57:18;101302.19;;;14.30;46.34
26711;BME280;18311;52.754;18.118;2023-02-11T04:59:50;101291.37;;;14.87;45.75
26711;BME280;18311;52.754;18.118;2023-02-11T05:02:20;101284.87;;;15.10;45.48
26711;BME280;18311;52.754;18.118;2023-02-11T05:04:51;101297.42;;;13.97;47.33
26711;BME280;18311;52.754;18.118;2023-02-11T05:07:22;101298.04;;;14.61;46.24
26711;BME280;18311;52.754;18.118;2023-02-11T05:09:52;101285.45;;;14.23;47.93
26711;BME280;18311;52.754;18.118;2023-02-11T05:12:23;101271.48;;;15.26;45.60
26711;BME280;18311;52.754;18.118;2023-02-11T05:14:53;101277.37;;;14.80;45.55
26711;BME280;18311;52.754;18.118;2023-02-11T05:17:24;101270.13;;;15.52;44.72
26711;BME280;18311;52.754;18.118;2023-02-11T05:19:55;101268.70;;;15.10;45.06
26711;BME280;18311;52.754;18.118;2023-02-11T05:22:26;101259.79;;;14.35;48.11
26711;BME280;18311;52.754;18.118;2023-02-11T05:24:56;101265.59;;;15.00;45.93
26711;BME280;18311;52.754;18.118;2023-02-11T05:27:27;101258.38;;;15.01;46.47
26711;BME280;18311;52.754;18.118;2023-02-11T05:29:58;101266.95;;;15.44;44.75
26711;BME280;18311;52.754;18.118;2023-02-11T05:32:29;101257.95;;;14.73;45.40
26711;BME280;18311;52.754;18.118;2023-02-11T05:35:00;101252.44;;;14.39;46.71
26711;BME280;18311;52.754;18.118;2023-02-11T05:37:30;101248.00;;;14.93;46.10
26711;BME280;18311;52.754;18.118;2023-02-11T05:40:01;101245.67;;;14.49;47.16
26711;BME280;18311;52.754;18.118;2023-02-11T05:42:32;101250.48;;;14.61;46.44
26711;BME280;18311;52.754;18.118;2023-02-11T05:45:03;101232.73;;;15.79;44.71
26711;BME280;18311;52.754;18.118;2023-02-11T05:47:34;101234.73;;;15.58;44.71
26711;BME280;18311;52.754;18.118;2023-02-11T05:50:06;101229.23;;;15.26;45.03
26711;BME280;18311;52.754;18.118;2023-02-11T05:52:36;101229.87;;;15.82;44.95
26711;BME280;18311;52.754;18.118;2023-02-11T05:55:07;101226.29;;;14.79;46.18
26711;BME280;18311;52.754;18.118;2023-02-11T05:57:38;101209.81;;;15.02;46.12
26711;BME280;18311;52.754;18.118;2023-02-11T06:00:10;101209.92;;;14.28;46.94
26711;BME280;18311;52.754;18.118;2023-02-11T06:02:41;101199.03;;;14.12;47.81
26711;BME280;18311;52.754;18.118;2023-02-11T06:05:12;101200.67;;;13.76;50.93
26711;BME280;18311;52.754;18.118;2023-02-11T06:07:43;101197.91;;;14.35;48.82
26711;BME280;18311;52.754;18.118;2023-02-11T06:10:13;101184.05;;;13.68;49.59
26711;BME280;18311;52.754;18.118;2023-02-11T06:12:45;101190.08;;;13.73;48.59
26711;BME280;18311;52.754;18.118;2023-02-11T06:15:21;101200.93;;;14.46;48.62
26711;BME280;18311;52.754;18.118;2023-02-11T06:17:54;101208.89;;;14.11;48.25
26711;BME280;18311;52.754;18.118;2023-02-11T06:20:28;101213.31;;;14.50;48.38
26711;BME280;18311;52.754;18.118;2023-02-11T06:23:01;101190.25;;;14.81;48.98
26711;BME280;18311;52.754;18.118;2023-02-11T06:25:33;101178.23;;;13.77;50.86
26711;BME280;18311;52.754;18.118;2023-02-11T06:28:06;101167.51;;;15.04;47.43
26711;BME280;18311;52.754;18.118;2023-02-11T06:30:42;101178.22;;;14.52;49.59
26711;BME280;18311;52.754;18.118;2023-02-11T06:33:21;101190.58;;;14.01;49.62
26711;BME280;18311;52.754;18.118;2023-02-11T06:36:01;101206.52;;;14.05;50.15
26711;BME280;18311;52.754;18.118;2023-02-11T06:38:37;101190.03;;;15.03;50.22
26711;BME280;18311;52.754;18.118;2023-02-11T06:41:15;101183.31;;;14.03;52.97
26711;BME280;18311;52.754;18.118;2023-02-11T06:43:52;101200.07;;;13.51;52.90
26711;BME280;18311;52.754;18.118;2023-02-11T06:46:26;101185.84;;;14.98;49.98
26711;BME280;18311;52.754;18.118;2023-02-11T06:49:18;101197.98;;;13.76;52.87
26711;BME280;18311;52.754;18.118;2023-02-11T06:51:53;101193.41;;;14.16;53.21
26711;BME280;18311;52.754;18.118;2023-02-11T06:54:25;101189.71;;;13.81;53.89
26711;BME280;18311;52.754;18.118;2023-02-11T06:57:11;101178.23;;;14.15;55.16
26711;BME280;18311;52.754;18.118;2023-02-11T06:59:44;101182.89;;;14.12;53.27
26711;BME280;18311;52.754;18.118;2023-02-11T07:02:19;101166.49;;;15.07;51.38
26711;BME280;18311;52.754;18.118;2023-02-11T07:04:55;101178.95;;;14.19;54.34
26711;BME280;18311;52.754;18.118;2023-02-11T07:07:52;101177.44;;;13.75;53.62
26711;BME280;18311;52.754;18.118;2023-02-11T07:10:27;101172.05;;;14.50;53.76
26711;BME280;18311;52.754;18.118;2023-02-11T07:13:01;101182.87;;;13.74;55.17
26711;BME280;18311;52.754;18.118;2023-02-11T07:15:35;101187.03;;;14.00;55.99
26711;BME280;18311;52.754;18.118;2023-02-11T07:18:09;101193.50;;;14.88;54.60
26711;BME280;18311;52.754;18.118;2023-02-11T07:20:44;101194.06;;;15.12;53.31
26711;BME280;18311;52.754;18.118;2023-02-11T07:23:17;101184.77;;;14.65;54.61
26711;BME280;18311;52.754;18.118;2023-02-11T07:25:52;101188.80;;;14.38;53.68
26711;BME280;18311;52.754;18.118;2023-02-11T07:28:26;101183.23;;;14.04;55.23
26711;BME280;18311;52.754;18.118;2023-02-11T07:31:22;101198.09;;;14.68;53.37
26711;BME280;18311;52.754;18.118;2023-02-11T07:33:43;101182.50;;;14.75;53.43
26711;BME280;18311;52.754;18.118;2023-02-11T07:36:17;101165.72;;;13.76;55.06
26711;BME280;18311;52.754;18.118;2023-02-11T07:38:52;101167.92;;;14.97;52.71
26711;BME280;18311;52.754;18.118;2023-02-11T07:41:27;101170.77;;;14.76;54.61
26711;BME280;18311;52.754;18.118;2023-02-11T07:44:00;101196.95;;;13.60;59.12
26711;BME280;18311;52.754;18.118;2023-02-11T07:46:34;101168.53;;;14.30;56.07
26711;BME280;18311;52.754;18.118;2023-02-11T07:49:06;101140.78;;;15.35;52.23
26711;BME280;18311;52.754;18.118;2023-02-11T07:51:42;101165.70;;;14.33;55.78
26711;BME280;18311;52.754;18.118;2023-02-11T07:54:20;101159.67;;;15.17;54.25
26711;BME280;18311;52.754;18.118;2023-02-11T07:56:53;101150.50;;;14.86;53.33
26711;BME280;18311;52.754;18.118;2023-02-11T07:59:27;101144.09;;;14.71;55.58
26711;BME280;18311;52.754;18.118;2023-02-11T08:02:03;101131.53;;;14.53;54.60
26711;BME280;18311;52.754;18.118;2023-02-11T08:04:36;101140.27;;;15.10;56.12
26711;BME280;18311;52.754;18.118;2023-02-11T08:07:16;101138.73;;;14.52;58.13
26711;BME280;18311;52.754;18.118;2023-02-11T08:09:49;101147.48;;;15.10;55.58
26711;BME280;18311;52.754;18.118;2023-02-11T08:12:22;101138.11;;;13.92;58.75
26711;BME280;18311;52.754;18.118;2023-02-11T08:14:56;101136.06;;;14.16;60.33
26711;BME280;18311;52.754;18.118;2023-02-11T08:17:36;101121.87;;;15.19;55.84
26711;BME280;18311;52.754;18.118;2023-02-11T08:20:09;101117.71;;;15.62;52.78
26711;BME280;18311;52.754;18.118;2023-02-11T08:22:45;101124.89;;;18.97;48.63
26711;BME280;18311;52.754;18.118;2023-02-11T08:25:22;101131.89;;;17.06;48.22
26711;BME280;18311;52.754;18.118;2023-02-11T08:28:06;101108.33;;;16.94;48.48
26711;BME280;18311;52.754;18.118;2023-02-11T08:30:39;101093.01;;;18.35;45.31
26711;BME280;18311;52.754;18.118;2023-02-11T08:33:15;101100.45;;;17.34;48.34
26711;BME280;18311;52.754;18.118;2023-02-11T08:35:49;101079.19;;;15.60;51.19
26711;BME280;18311;52.754;18.118;2023-02-11T08:38:21;101055.06;;;17.10;47.57
26711;BME280;18311;52.754;18.118;2023-02-11T08:40:55;101056.91;;;17.10;47.24
26711;BME280;18311;52.754;18.118;2023-02-11T08:43:29;101085.34;;;16.56;49.28
26711;BME280;18311;52.754;18.118;2023-02-11T08:46:04;101077.76;;;16.33;49.52
26711;BME280;18311;52.754;18.118;2023-02-11T08:48:38;101064.67;;;15.95;49.59
26711;BME280;18311;52.754;18.118;2023-02-11T08:51:20;101088.29;;;16.37;51.55
26711;BME280;18311;52.754;18.118;2023-02-11T08:54:14;101091.20;;;15.86;51.68
26711;BME280;18311;52.754;18.118;2023-02-11T08:56:49;101093.27;;;16.29;50.56
26711;BME280;18311;52.754;18.118;2023-02-11T08:59:20;101112.31;;;17.60;47.82
26711;BME280;18311;52.754;18.118;2023-02-11T09:01:59;101070.50;;;16.03;49.67
26711;BME280;18311;52.754;18.118;2023-02-11T09:04:43;101078.03;;;16.89;49.04
26711;BME280;18311;52.754;18.118;2023-02-11T09:07:17;101089.99;;;16.85;48.78
26711;BME280;18311;52.754;18.118;2023-02-11T09:09:48;101096.06;;;15.64;51.50
26711;BME280;18311;52.754;18.118;2023-02-11T09:12:23;101122.25;;;17.02;49.50
26711;BME280;18311;52.754;18.118;2023-02-11T09:14:59;101094.92;;;16.62;50.38
26711;BME280;18311;52.754;18.118;2023-02-11T09:17:33;101089.91;;;16.70;50.14
26711;BME280;18311;52.754;18.118;2023-02-11T09:20:07;101076.89;;;16.32;52.61
26711;BME280;18311;52.754;18.118;2023-02-11T09:22:41;101081.56;;;16.45;52.61
26711;BME280;18311;52.754;18.118;2023-02-11T09:25:18;101061.35;;;17.25;51.37
26711;BME280;18311;52.754;18.118;2023-02-11T09:27:53;101060.59;;;15.88;52.31
26711;BME280;18311;52.754;18.118;2023-02-11T09:30:25;101093.50;;;17.44;50.11
26711;BME280;18311;52.754;18.118;2023-02-11T09:33:03;101055.20;;;17.65;49.17
26711;BME280;18311;52.754;18.118;2023-02-11T09:35:36;101069.74;;;16.92;50.08
26711;BME280;18311;52.754;18.118;2023-02-11T09:38:08;101065.40;;;16.59;50.39
26711;BME280;18311;52.754;18.118;2023-02-11T09:40:44;101059.05;;;16.60;51.98
26711;BME280;18311;52.754;18.118;2023-02-11T09:43:21;101062.00;;;17.00;50.04
26711;BME280;18311;52.754;18.118;2023-02-11T09:45:55;101075.09;;;16.77;51.49
26711;BME280;18311;52.754;18.118;2023-02-11T09:48:28;101084.02;;;16.94;52.13
26711;BME280;18311;52.754;18.118;2023-02-11T09:51:03;101063.07;;;17.26;50.13
26711;BME280;18311;52.754;18.118;2023-02-11T09:53:39;101074.13;;;17.79;48.53
26711;BME280;18311;52.754;18.118;2023-02-11T09:56:13;101065.10;;;17.23;49.28
26711;BME280;18311;52.754;18.118;2023-02-11T09:58:49;101049.52;;;16.69;50.83
26711;BME280;18311;52.754;18.118;2023-02-11T10:07:31;101063.08;;;17.12;49.44
26711;BME280;18311;52.754;18.118;2023-02-11T10:10:21;101058.43;;;15.78;53.61
26711;BME280;18311;52.754;18.118;2023-02-11T10:13:00;101013.24;;;16.58;65.46
26711;BME280;18311;52.754;18.118;2023-02-11T10:15:41;101021.50;;;17.14;56.55
26711;BME280;18311;52.754;18.118;2023-02-11T10:24:03;100972.32;;;16.05;59.74
26711;BME280;18311;52.754;18.118;2023-02-11T10:26:40;100978.73;;;15.41;66.84
26711;BME280;18311;52.754;18.118;2023-02-11T10:29:42;100946.03;;;15.79;61.56
26711;BME280;18311;52.754;18.118;2023-02-11T10:32:22;100947.41;;;15.86;62.90
26711;BME280;18311;52.754;18.118;2023-02-11T10:34:50;100908.17;;;16.11;65.00
26711;BME280;18311;52.754;18.118;2023-02-11T10:37:25;100917.01;;;17.01;56.60
26711;BME280;18311;52.754;18.118;2023-02-11T10:40:00;100919.73;;;16.13;61.98
26711;BME280;18311;52.754;18.118;2023-02-11T10:42:35;100981.09;;;15.79;57.09
26711;BME280;18311;52.754;18.118;2023-02-11T10:45:15;100962.45;;;18.04;52.73
26711;BME280;18311;52.754;18.118;2023-02-11T10:47:45;101010.22;;;16.49;57.44
26711;BME280;18311;52.754;18.118;2023-02-11T10:50:24;100996.06;;;16.59;56.58
26711;BME280;18311;52.754;18.118;2023-02-11T10:53:16;100985.16;;;17.47;53.09
26711;BME280;18311;52.754;18.118;2023-02-11T10:55:55;101002.48;;;17.58;53.27
26711;BME280;18311;52.754;18.118;2023-02-11T10:58:44;101005.75;;;16.33;56.44
26711;BME280;18311;52.754;18.118;2023-02-11T11:01:23;101013.85;;;16.03;56.19
26711;BME280;18311;52.754;18.118;2023-02-11T11:03:59;101018.26;;;16.79;58.63
26711;BME280;18311;52.754;18.118;2023-02-11T11:06:32;101028.22;;;15.56;62.39
26711;BME280;18311;52.754;18.118;2023-02-11T11:09:05;101036.92;;;15.93;59.21
26711;BME280;18311;52.754;18.118;2023-02-11T11:11:37;101048.40;;;16.42;58.91
26711;BME280;18311;52.754;18.118;2023-02-11T11:14:17;101034.31;;;16.37;60.05
26711;BME280;18311;52.754;18.118;2023-02-11T11:16:55;101040.97;;;17.05;55.58
26711;BME280;18311;52.754;18.118;2023-02-11T11:19:24;101027.53;;;18.56;50.88
26711;BME280;18311;52.754;18.118;2023-02-11T11:21:55;101046.34;;;16.76;55.52
26711;BME280;18311;52.754;18.118;2023-02-11T11:24:36;101035.95;;;17.28;55.00
26711;BME280;18311;52.754;18.118;2023-02-11T11:27:04;101034.13;;;17.70;51.88
26711;BME280;18311;52.754;18.118;2023-02-11T11:29:37;101040.20;;;17.03;54.25
26711;BME280;18311;52.754;18.118;2023-02-11T11:32:26;101037.23;;;16.63;62.97
26711;BME280;18311;52.754;18.118;2023-02-11T11:34:55;101042.16;;;17.30;58.02
26711;BME280;18311;52.754;18.118;2023-02-11T11:37:29;101043.50;;;19.12;51.42
26711;BME280;18311;52.754;18.118;2023-02-11T11:45:30;101037.81;;;18.63;51.55
26711;BME280;18311;52.754;18.118;2023-02-11T11:48:21;101050.14;;;18.42;52.08
26711;BME280;18311;52.754;18.118;2023-02-11T11:51:09;101041.77;;;18.32;52.19
26711;BME280;18311;52.754;18.118;2023-02-11T11:56:19;101076.48;;;17.57;52.57
26711;BME280;18311;52.754;18.118;2023-02-11T11:58:51;101063.24;;;18.48;51.87
26711;BME280;18311;52.754;18.118;2023-02-11T12:01:50;101058.02;;;18.32;54.35
26711;BME280;18311;52.754;18.118;2023-02-11T12:07:53;101063.30;;;18.74;52.23
26711;BME280;18311;52.754;18.118;2023-02-11T12:16:04;101049.09;;;18.70;54.16
26711;BME280;18311;52.754;18.118;2023-02-11T12:18:55;101029.66;;;19.40;50.33
26711;BME280;18311;52.754;18.118;2023-02-11T12:21:40;101030.41;;;19.42;51.30
26711;BME280;18311;52.754;18.118;2023-02-11T12:27:34;101032.63;;;19.24;51.18
26711;BME280;18311;52.754;18.118;2023-02-11T12:30:40;101032.78;;;18.32;54.67
26711;BME280;18311;52.754;18.118;2023-02-11T12:33:37;101022.93;;;18.43;52.48
26711;BME280;18311;52.754;18.118;2023-02-11T12:39:08;101034.70;;;17.75;60.02
26711;BME280;18311;52.754;18.118;2023-02-11T12:41:49;101015.80;;;18.42;57.00
26711;BME280;18311;52.754;18.118;2023-02-11T12:44:44;101021.11;;;18.44;55.83
26711;BME280;18311;52.754;18.118;2023-02-11T12:53:10;101008.19;;;19.37;52.47
26711;BME280;18311;52.754;18.118;2023-02-11T12:55:42;101015.49;;;18.73;54.82
26711;BME280;18311;52.754;18.118;2023-02-11T12:58:19;101026.33;;;18.73;53.30
26711;BME280;18311;52.754;18.118;2023-02-11T13:01:04;101014.55;;;18.86;54.86
26711;BME280;18311;52.754;18.118;2023-02-11T13:03:41;101037.27;;;18.58;55.74
26711;BME280;18311;52.754;18.118;2023-02-11T13:06:17;101035.80;;;18.00;58.46
26711;BME280;18311;52.754;18.118;2023-02-11T13:08:58;101033.19;;;19.04;53.10
26711;BME280;18311;52.754;18.118;2023-02-11T13:11:31;101038.50;;;19.05;53.41
26711;BME280;18311;52.754;18.118;2023-02-11T13:14:16;101047.98;;;18.47;54.00
26711;BME280;18311;52.754;18.118;2023-02-11T13:16:48;101040.78;;;18.99;54.11
26711;BME280;18311;52.754;18.118;2023-02-11T13:24:50;101054.31;;;18.73;53.26
26711;BME280;18311;52.754;18.118;2023-02-11T13:27:35;101062.84;;;18.67;53.13
26711;BME280;18311;52.754;18.118;2023-02-11T13:30:33;101063.68;;;18.42;55.05
26711;BME280;18311;52.754;18.118;2023-02-11T13:33:03;101086.12;;;17.61;59.88
26711;BME280;18311;52.754;18.118;2023-02-11T13:35:40;101074.64;;;18.66;54.78
26711;BME280;18311;52.754;18.118;2023-02-11T13:38:32;101075.08;;;18.60;55.26
26711;BME280;18311;52.754;18.118;2023-02-11T13:41:18;101078.20;;;18.54;54.99
26711;BME280;18311;52.754;18.118;2023-02-11T13:52:04;101083.97;;;18.75;55.52
26711;BME280;18311;52.754;18.118;2023-02-11T13:54:36;101102.61;;;17.85;60.16
26711;BME280;18311;52.754;18.118;2023-02-11T13:57:25;101078.18;;;19.19;54.81
26711;BME280;18311;52.754;18.118;2023-02-11T13:59:57;101090.03;;;18.65;57.14
26711;BME280;18311;52.754;18.118;2023-02-11T14:02:33;101101.72;;;18.26;57.47
26711;BME280;18311;52.754;18.118;2023-02-11T14:05:25;101083.23;;;19.50;53.79
26711;BME280;18311;52.754;18.118;2023-02-11T14:08:21;101089.34;;;19.15;54.29
26711;BME280;18311;52.754;18.118;2023-02-11T14:19:37;101100.80;;;18.40;62.65
26711;BME280;18311;52.754;18.118;2023-02-11T14:22:24;101115.69;;;18.47;59.19
26711;BME280;18311;52.754;18.118;2023-02-11T14:25:02;101120.84;;;18.77;59.57
26711;BME280;18311;52.754;18.118;2023-02-11T14:27:41;101123.94;;;18.58;58.48
26711;BME280;18311;52.754;18.118;2023-02-11T14:33:23;101121.09;;;18.87;58.92
26711;BME280;18311;52.754;18.118;2023-02-11T14:39:01;101145.73;;;19.35;54.38
26711;BME280;18311;52.754;18.118;2023-02-11T14:41:40;101152.80;;;18.45;60.35
26711;BME280;18311;52.754;18.118;2023-02-11T14:44:27;101148.67;;;18.66;59.27
26711;BME280;18311;52.754;18.118;2023-02-11T14:47:00;101145.60;;;18.58;59.03
26711;BME280;18311;52.754;18.118;2023-02-11T14:49:34;101149.50;;;18.27;60.09
26711;BME280;18311;52.754;18.118;2023-02-11T14:52:28;101156.81;;;17.98;62.67